Flight Track Log - Related Links

Times and Time Zones

All times are in EDT time to prevent confusion due to time zone crossing. See the SWA1688 flight status page for this flight to view local times or setup timezone preferences in your user account.

Time Position Orientation Groundspeed Altitude Reporting Facility
EDT Latitude Longitude Course Direction KTS MPH feet Rate Location/Type
Sun 22:58:01 28.4000 -81.3000 156° South 161 185 700  Level Orlando TRACON
Sun 22:58:55 28.3667 -81.2833 156° South 195 224 2,500 2,983 Climbing Orlando TRACON
Sun 23:00:58 28.3597 -81.1431 93° East 185 213 9,500 2,885 Climbing Miami Center
Sun 23:01:58 28.3667 -81.0514 85° East 226 260 11,300 2,450 Climbing Miami Center
Sun 23:02:58 28.3717 -80.9525 87° East 305 351 14,400 3,200 Climbing Miami Center
Sun 23:03:58 28.4061 -80.8358 71° East 346 398 17,700 2,705 Climbing Miami Center
Sun 23:05:00 28.4486 -80.7358 64° Northeast 369 425 19,900 2,250 Climbing Miami Center
Sun 23:05:58 28.4933 -80.6217 66° East 383 441 22,200 2,420 Climbing Miami Center
Sun 23:06:59 28.5447 -80.4886 66° East 406 467 24,700 2,164 Climbing Miami Center
Sun 23:08:00 28.5961 -80.3603 65° Northeast 422 486 26,600 1,950 Climbing Miami Center
Sun 23:08:59 28.6533 -80.2344 63° Northeast 439 505 28,600 1,950 Climbing Miami Center
Sun 23:10:00 28.7250 -80.1158 55° Northeast 439 505 30,500 1,736 Climbing Miami Center
Sun 23:11:00 28.8047 -80.0022 51° Northeast 451 519 32,100 1,900 Climbing Miami Center
Sun 23:12:00 28.8883 -79.8931 49° Northeast 456 525 34,300 1,932 Climbing Miami Center
Sun 23:12:58 28.9742 -79.7839 48° Northeast 456 525 35,900 1,525 Climbing Miami Center
Sun 23:13:58 29.0594 -79.6864 45° Northeast 450 518 37,300 1,091 Climbing Miami Center
Sun 23:14:59 29.1731 -79.6419 19° North 415 478 38,100 836 Climbing Miami Center
Sun 23:16:00 29.2883 -79.6044 16° North 421 484 39,000 454 Climbing Miami Center
Sun 23:16:58 29.4061 -79.5669 16° North 427 491 39,000 -51 Level Miami Center
Sun 23:17:58 29.5256 -79.5292 15° North 432 497 38,900  Descending Miami Center
Sun 23:18:59 29.6431 -79.4917 16° North 432 497 39,000 50 Climbing Miami Center
Sun 23:19:58 29.7481 -79.4511 19° North 443 510 39,000  Level Miami Center
Sun 23:21:43 29.9467 -79.3786 18° North 444 511 39,000  Level Jacksonville Center
Sun 23:22:43 30.0711 -79.3478 12° North 439 505 39,000  Level Jacksonville Center
Sun 23:23:43 30.1850 -79.3122 15° North 429 494 39,000  Level Jacksonville Center
Sun 23:24:43 30.2986 -79.2744 16° North 424 488 39,000  Level Jacksonville Center
Sun 23:25:43 30.4103 -79.2339 17° North 418 481 39,000  Level Jacksonville Center
Sun 23:26:43 30.5219 -79.1961 16° North 412 474 39,000  Level Jacksonville Center
Sun 23:27:43 30.6378 -79.1603 15° North 422 486 39,000  Level Jacksonville Center
Sun 23:28:43 30.7536 -79.1217 16° North 417 480 39,000  Level Jacksonville Center
Sun 23:29:43 30.8714 -79.0808 17° North 422 486 39,000  Level Jacksonville Center
Sun 23:30:43 30.9869 -79.0422 16° North 427 491 39,000  Level Jacksonville Center
Sun 23:31:43 31.1050 -79.0058 15° North 427 491 39,000  Level Jacksonville Center
Sun 23:32:43 31.2186 -78.9672 16° North 427 491 39,000  Level Jacksonville Center
Sun 23:33:43 31.3322 -78.9283 16° North 427 491 39,000  Level Jacksonville Center
Sun 23:34:43 31.4500 -78.8892 16° North 432 497 39,000  Level Jacksonville Center
Sun 23:35:43 31.5675 -78.8500 16° North 432 497 39,000  Level Jacksonville Center
Sun 23:36:43 31.6853 -78.8108 16° North 437 503 39,000  Level Jacksonville Center
Sun 23:37:43 31.8053 -78.7711 16° North 432 497 39,000  Level Jacksonville Center
Sun 23:38:43 31.9247 -78.7267 18° North 432 497 39,000  Level Jacksonville Center
Sun 23:39:43 32.0444 -78.6869 16° North 437 503 39,000  Level Jacksonville Center
Sun 23:40:43 32.1642 -78.6472 16° North 437 503 39,000  Level Jacksonville Center
Sun 23:41:43 32.2839 -78.6047 17° North 437 503 39,000  Level Jacksonville Center
Sun 23:42:43 32.4014 -78.5647 16° North 442 509 39,000  Level Jacksonville Center
Sun 23:43:43 32.5211 -78.5197 18° North 442 509 39,000  Level Jacksonville Center
Sun 23:44:43 32.6386 -78.4769 17° North 442 509 39,000  Level Jacksonville Center
Sun 23:45:43 32.7561 -78.4392 15° North 436 502 39,000  Level Jacksonville Center
Sun 23:46:43 32.8714 -78.3939 18° North 431 496 39,000  Level Jacksonville Center
Sun 23:47:43 32.9869 -78.3583 14° North 431 496 39,000  Level Jacksonville Center
Sun 23:48:43 33.1025 -78.3178 16° North 431 496 39,000  Level Jacksonville Center
Sun 23:49:43 33.2178 -78.2797 15° North 431 496 39,000  Level Jacksonville Center
Sun 23:51:21 33.3983 -78.2131 17° North 428 493 39,000  Level Washington Center
Sun 23:52:21 33.5139 -78.1769 15° North 423 487 39,000  Level Washington Center
Sun 23:53:19 33.6275 -78.1356 17° North 423 487 39,000  Level Washington Center
Sun 23:54:19 33.7494 -78.0917 17° North 423 487 39,000  Level Washington Center
Sun 23:55:20 33.8628 -78.0553 15° North 423 487 39,000  Level Washington Center
Sun 23:56:19 33.9825 -78.0111 17° North 423 487 39,000  Level Washington Center
Sun 23:57:19 34.0961 -77.9669 18° North 428 493 39,000  Level Washington Center
Sun 23:58:19 34.2075 -77.9247 17° North 428 493 39,000  Level Washington Center
Sun 23:59:19 34.3250 -77.8881 14° North 422 486 39,000  Level Washington Center
Mon 00:00:18 34.4347 -77.8306 23° Northeast 422 486 39,000  Level Washington Center
Mon 00:01:18 34.5442 -77.7681 25° Northeast 422 486 39,000  Level Washington Center
Mon 00:02:19 34.6517 -77.7078 25° Northeast 422 486 39,000  Level Washington Center
Mon 00:03:21 34.7592 -77.6472 25° Northeast 422 486 39,000  Level Washington Center
Mon 00:04:20 34.8647 -77.5817 27° Northeast 422 486 39,000  Level Washington Center
Mon 00:05:21 34.9783 -77.5211 24° Northeast 427 491 39,000  Level Washington Center
Mon 00:06:20 35.0878 -77.4553 26° Northeast 427 491 39,000  Level Washington Center
Mon 00:07:19 35.1972 -77.3942 25° Northeast 432 497 39,000  Level Washington Center
Mon 00:08:19 35.3067 -77.3306 25° Northeast 427 491 39,000  Level Washington Center
Mon 00:09:18 35.4161 -77.2692 25° Northeast 427 491 39,000  Level Washington Center
Mon 00:10:21 35.5275 -77.2050 25° Northeast 427 491 39,000  Level Washington Center
Mon 00:11:18 35.6286 -77.1458 25° Northeast 434 499 39,000  Level Washington Center
Mon 00:12:18 35.7336 -77.0839 26° Northeast 425 489 39,000  Level Washington Center
Mon 00:13:19 35.8408 -77.0192 26° Northeast 425 489 39,000  Level Washington Center
Mon 00:14:19 35.9522 -76.9569 24° Northeast 425 489 39,000  Level Washington Center
Mon 00:15:20 36.0614 -76.8972 24° Northeast 425 489 39,000  Level Washington Center
Mon 00:16:20 36.1683 -76.8322 26° Northeast 425 489 39,000  Level Washington Center
Mon 00:17:21 36.2775 -76.7669 26° Northeast 425 489 39,000  Level Washington Center
Mon 00:18:19 36.3886 -76.7039 25° Northeast 425 489 39,000  Level Washington Center
Mon 00:19:18 36.4978 -76.6408 25° Northeast 425 489 39,000  Level Washington Center
Mon 00:20:18 36.6069 -76.5753 26° Northeast 425 489 39,000  Level Washington Center
Mon 00:21:19 36.7136 -76.5117 26° Northeast 425 489 39,000  Level Washington Center
Mon 00:22:18 36.8206 -76.4456 26° Northeast 425 489 39,000  Level Washington Center
Mon 00:23:20 36.9275 -76.3817 26° Northeast 425 489 39,000  Level Washington Center
Mon 00:24:20 37.0342 -76.3153 26° Northeast 425 489 39,000  Level Washington Center
Mon 00:25:20 37.1431 -76.2483 26° Northeast 425 489 39,000  Level Washington Center
Mon 00:26:19 37.2519 -76.1817 26° Northeast 425 489 39,000  Level Washington Center
Mon 00:27:19 37.3775 -76.1144 23° Northeast 430 495 39,000  Level Washington Center
Mon 00:28:20 37.4861 -76.0472 26° Northeast 430 495 39,000  Level Washington Center
Mon 00:29:19 37.5947 -75.9822 25° Northeast 425 489 39,000  Level Washington Center
Mon 00:30:19 37.7056 -75.9119 27° Northeast 425 489 39,000  Level Washington Center
Mon 00:31:19 37.8081 -75.8414 29° Northeast 425 489 39,000  Level Washington Center
Mon 00:32:21 37.9228 -75.7786 23° Northeast 425 489 39,000  Level Washington Center
Mon 00:33:19 38.0314 -75.7103 26° Northeast 425 489 39,000  Level Washington Center
Mon 00:34:18 38.1356 -75.6419 27° Northeast 425 489 39,000  Level Washington Center
Mon 00:35:18 38.2419 -75.5706 28° Northeast 425 489 39,000  Level Washington Center
Mon 00:36:18 38.3419 -75.5097 26° Northeast 432 497 39,000  Level Washington Center
Mon 00:37:18 38.4483 -75.4381 28° Northeast 432 497 39,000  Level Washington Center
Mon 00:38:19 38.5567 -75.3714 26° Northeast 427 491 39,000  Level Washington Center
Mon 00:39:20 38.6669 -75.3072 24° Northeast 427 491 39,000  Level Washington Center
Mon 00:40:19 38.7731 -75.2269 31° Northeast 427 491 39,000  Level Washington Center
Mon 00:41:19 38.8811 -75.1622 25° Northeast 427 491 39,000  Level Washington Center
Mon 00:42:18 38.9872 -75.0869 29° Northeast 427 491 39,000  Level Washington Center
Mon 00:44:04 39.1844 -74.9600 27° Northeast 434 499 39,000  Level New York Center
Mon 00:45:03 39.2889 -74.8939 26° Northeast 429 494 39,000  Level New York Center
Mon 00:46:03 39.3914 -74.8219 28° Northeast 424 488 39,000  Level New York Center
Mon 00:47:03 39.4894 -74.7631 25° Northeast 430 495 39,000  Level New York Center
Mon 00:48:05 39.5992 -74.7233 16° North 423 487 39,000  Level New York Center
Mon 00:49:04 39.7147 -74.6947 11° North 413 475 39,000  Level New York Center
Mon 00:50:05 39.8306 -74.6633 12° North 413 475 39,000 -400 Level New York Center
Mon 00:51:04 39.9442 -74.6292 13° North 413 475 38,200 -864 Descending New York Center
Mon 00:52:03 40.0597 -74.5975 12° North 413 475 37,300 -995 Descending New York Center
Mon 00:54:29 40.3578 -74.5069 13° North 423 487 34,800 -1,078 Descending Boston Center
Mon 00:55:29 40.4753 -74.4725 13° North 429 494 33,600 -1,600 Descending Boston Center
Mon 00:56:29 40.5925 -74.4381 13° North 429 494 31,600 -1,950 Descending Boston Center
Mon 00:57:29 40.7119 -74.4061 11° North 434 499 29,700 -1,900 Descending Boston Center
Mon 00:58:29 40.8375 -74.3742 11° North 439 505 27,800 -1,600 Descending Boston Center
Mon 00:59:29 40.9589 -74.3392 12° North 439 505 26,500 -900 Descending Boston Center
Mon 01:00:29 41.0553 -74.3119 12° North 439 505 26,000 -250 Descending Boston Center
Mon 01:01:29 41.1747 -74.2767 13° North 426 490 26,000  Level Boston Center
Mon 01:02:29 41.3025 -74.2361 13° North 420 483 26,000  Level Boston Center
Mon 01:03:29 41.4156 -74.2006 13° North 414 476 26,000 -400 Level Boston Center
Mon 01:04:29 41.5306 -74.1678 12° North 414 476 25,200 -900 Descending Boston Center
Mon 01:05:29 41.6375 -74.1372 12° North 421 484 24,200 -1,000 Descending Boston Center
Mon 01:06:29 41.7525 -74.1014 13° North 421 484 23,200 -1,063 Descending Boston Center
Mon 01:06:48 41.7881 -74.0939 North 416 479 22,800 -1,000 Descending Boston Center
Mon 01:07:29 41.8550 -74.0761 11° North 398 458 22,200 -1,091 Descending Boston Center
Mon 01:07:54 41.9158 -74.0556 14° North 408 470 21,600 -1,000 Descending Boston Center
Mon 01:08:29 41.9619 -74.0428 12° North 393 452 21,200 -1,377 Descending Boston Center
Mon 01:08:55 42.0247 -74.0247 12° North 398 458 20,200 -2,000 Descending Boston Center
Mon 01:09:29 42.0686 -74.0119 12° North 393 452 19,200 -2,400 Descending Boston Center
Mon 01:09:55 42.1272 -73.9936 13° North 380 437 17,800 -2,600 Descending Boston Center
Mon 01:10:29 42.1836 -73.9756 13° North 387 445 16,600 -2,361 Descending Boston Center
Mon 01:10:56 42.2256 -73.9653 10° North 367 422 15,400 -2,300 Descending Boston Center
Mon 01:11:29 42.2717 -73.9497 14° North 368 423 14,300 -2,557 Descending Boston Center
Mon 01:11:57 42.3239 -73.9397 North 360 414 12,800 -2,700 Descending Boston Center
Mon 01:12:29 42.3822 -73.9383 North 358 412 11,600 -2,000 Descending Boston Center
Mon 01:12:57 42.4217 -73.9419 356° North 344 396 10,800 -1,300 Descending Boston Center
Mon 01:13:29 42.4633 -73.9431 359° North 336 387 10,300 -885 Descending Boston Center
Mon 01:13:58 42.5114 -73.9414 North 311 358 9,900 -1,400 Descending Boston Center
Mon 01:14:29 42.5550 -73.9425 359° North 307 353 8,900 -1,672 Descending Boston Center
Mon 01:14:59 42.5925 -73.9461 356° North 284 327 8,200 -1,200 Descending Boston Center
Mon 01:15:29 42.6281 -73.9469 359° North 293 337 7,700 -1,700 Descending Boston Center
Mon 01:15:59 42.6781 -73.9453 North 283 326 6,500 -1,700 Descending Boston Center
Mon 01:16:29 42.7092 -73.9461 359° North 288 331 6,000 -1,475 Descending Boston Center
Mon 01:17:00 42.7553 -73.9417 North 280 322 5,000 -1,400 Descending Boston Center
Mon 01:17:29 42.7822 -73.9450 355° North 283 326 4,600 -1,100 Descending Boston Center
Mon 01:18:00 42.8322 -73.9406 North 264 304 3,900 -1,200 Descending Boston Center
Mon 01:18:29 42.8617 -73.9356 North 264 304 3,400 -984 Descending Boston Center
Mon 01:19:01 42.8892 -73.9022 42° Northeast 241 277 2,900 -800 Descending Boston Center
Mon 01:19:29 42.8978 -73.8714 69° East 221 254 2,600 -787 Descending Boston Center
Mon 01:20:02 42.8942 -73.8258 96° East 202 232 2,100 -600 Descending Boston Center
Mon 01:20:29 42.8778 -73.8142 152° Southeast 117 135 2,000 -100 Descending Boston Center
Mon 01:21:02 42.8506 -73.8136 179° South 150 173 2,000  Level Boston Center
Mon 01:21:29 42.8658 -73.7686 65° Northeast 117 135 2,000 -689 Level Boston Center
Mon 01:22:03 42.8111 -73.8128 211° Southwest 131 151 1,300 -830 Descending Boston Center
Mon 01:23:03 42.7778 -73.8092 175° South 115 132 700 -600 Descending Boston Center

Login

Don't have an account? Register now (free) for customized features, flight alerts, and more!